createdAt,value
2019-03-08T00:01:15.864Z,99.90
2019-03-08T00:03:45.210Z,99.90
2019-03-08T00:06:14.593Z,99.90
2019-03-08T00:08:44.582Z,99.90
2019-03-08T00:11:13.925Z,99.90
2019-03-08T00:13:43.300Z,99.90
2019-03-08T00:16:12.606Z,99.90
2019-03-08T00:18:41.844Z,99.90
2019-03-08T00:21:12.735Z,99.90
2019-03-08T00:23:42.005Z,99.90
2019-03-08T00:26:11.312Z,99.90
2019-03-08T00:28:40.681Z,99.90
2019-03-08T00:31:10.186Z,99.90
2019-03-08T00:33:39.854Z,99.90
2019-03-08T00:36:09.564Z,99.90
2019-03-08T00:38:38.952Z,99.90
2019-03-08T00:41:08.238Z,99.90
2019-03-08T00:43:37.643Z,99.90
2019-03-08T00:46:06.951Z,99.90
2019-03-08T00:48:36.232Z,99.90
2019-03-08T00:51:05.804Z,99.90
2019-03-08T00:53:35.178Z,99.90
2019-03-08T00:56:04.778Z,99.90
2019-03-08T00:58:34.132Z,99.90
2019-03-08T01:01:03.496Z,99.90
2019-03-08T01:03:33.296Z,99.90
2019-03-08T01:06:02.613Z,99.90
2019-03-08T01:08:31.927Z,99.90
2019-03-08T01:11:01.329Z,99.90
2019-03-08T01:13:30.650Z,99.90
2019-03-08T01:16:00.001Z,99.90
2019-03-08T01:18:29.543Z,99.90
2019-03-08T01:20:59.106Z,99.90
2019-03-08T01:23:28.519Z,99.90
2019-03-08T01:25:57.806Z,99.90
2019-03-08T01:28:27.181Z,99.90
2019-03-08T01:30:56.568Z,99.90
2019-03-08T01:33:25.831Z,99.90
2019-03-08T01:35:55.221Z,99.90
2019-03-08T01:38:24.865Z,99.90
2019-03-08T01:40:55.374Z,99.90
2019-03-08T01:43:25.367Z,99.90
2019-03-08T01:45:54.927Z,99.90
2019-03-08T01:48:24.300Z,99.90
2019-03-08T01:50:53.588Z,99.90
2019-03-08T01:53:22.772Z,99.90
2019-03-08T01:55:53.569Z,99.90
2019-03-08T01:58:22.908Z,99.90
2019-03-08T02:00:53.910Z,99.90
2019-03-08T02:03:23.335Z,99.90
2019-03-08T02:05:52.654Z,99.90
2019-03-08T02:08:22.428Z,99.90
2019-03-08T02:10:51.734Z,99.90
2019-03-08T02:13:21.079Z,99.90
2019-03-08T02:15:50.493Z,99.90
2019-03-08T02:18:21.914Z,99.90
2019-03-08T02:20:52.326Z,99.90
2019-03-08T02:23:21.770Z,99.90
2019-03-08T02:25:51.353Z,99.90
2019-03-08T02:28:21.019Z,99.90
2019-03-08T02:30:50.356Z,99.90
2019-03-08T02:33:19.719Z,99.90
2019-03-08T02:35:49.147Z,99.90
2019-03-08T02:38:18.560Z,99.90
2019-03-08T02:40:47.902Z,99.90
2019-03-08T02:43:18.491Z,99.90
2019-03-08T02:45:47.867Z,99.90
2019-03-08T02:48:17.165Z,99.90
2019-03-08T02:50:46.632Z,99.90
2019-03-08T02:53:16.284Z,99.90
2019-03-08T02:55:45.640Z,99.90
2019-03-08T02:58:15.030Z,99.90
2019-03-08T03:00:47.769Z,99.90
2019-03-08T03:03:17.308Z,99.90
2019-03-08T03:05:47.133Z,99.90
2019-03-08T03:08:16.484Z,99.90
2019-03-08T03:10:45.764Z,99.90
2019-03-08T03:13:15.074Z,99.90
2019-03-08T03:15:44.440Z,99.90
2019-03-08T03:18:13.797Z,99.90
2019-03-08T03:20:43.192Z,99.90
2019-03-08T03:23:12.476Z,99.90
2019-03-08T03:25:41.764Z,99.90
2019-03-08T03:28:11.162Z,99.90
2019-03-08T03:30:40.597Z,99.90
2019-03-08T03:33:09.922Z,99.90
2019-03-08T03:35:39.288Z,99.90
2019-03-08T03:38:08.657Z,99.90
2019-03-08T03:40:38.109Z,99.90
2019-03-08T03:43:07.507Z,99.90
2019-03-08T03:45:36.898Z,99.90
2019-03-08T03:48:06.573Z,99.90
2019-03-08T03:50:35.871Z,99.90
2019-03-08T03:53:05.253Z,99.90
2019-03-08T03:55:35.804Z,99.90
2019-03-08T03:58:05.164Z,99.90
2019-03-08T04:00:34.573Z,99.90
2019-03-08T04:03:03.974Z,99.90
2019-03-08T04:05:33.321Z,99.90
2019-03-08T04:08:02.630Z,99.90
2019-03-08T04:10:31.941Z,99.90
2019-03-08T04:13:01.232Z,99.90
2019-03-08T04:15:30.991Z,99.90
2019-03-08T04:18:02.310Z,99.90
2019-03-08T04:20:31.385Z,99.90
2019-03-08T04:23:00.730Z,99.90
2019-03-08T04:25:30.041Z,99.90
2019-03-08T04:27:59.328Z,99.90
2019-03-08T04:30:28.605Z,99.90
2019-03-08T04:32:57.855Z,99.90
2019-03-08T04:35:27.193Z,99.90
2019-03-08T04:37:57.768Z,99.90
2019-03-08T04:40:27.098Z,99.90
2019-03-08T04:42:56.856Z,99.90
2019-03-08T04:45:26.233Z,99.90
2019-03-08T04:47:55.650Z,99.90
2019-03-08T04:50:26.750Z,99.90
2019-03-08T04:52:56.118Z,99.90
2019-03-08T04:55:25.395Z,99.90
2019-03-08T04:57:55.184Z,99.90
2019-03-08T05:00:24.560Z,99.90
2019-03-08T05:02:53.875Z,99.90
2019-03-08T05:05:23.199Z,99.90
2019-03-08T05:07:52.568Z,99.90
2019-03-08T05:10:22.428Z,99.90
2019-03-08T05:12:51.795Z,99.90
2019-03-08T05:15:21.188Z,99.90
2019-03-08T05:17:50.881Z,99.90
2019-03-08T05:20:21.165Z,99.90
2019-03-08T05:22:50.475Z,99.90
2019-03-08T05:25:19.782Z,99.90
2019-03-08T05:27:49.170Z,99.90
2019-03-08T05:30:18.668Z,99.90
2019-03-08T05:32:48.063Z,99.90
2019-03-08T05:35:17.423Z,99.90
2019-03-08T05:37:46.901Z,99.90
2019-03-08T05:40:16.336Z,99.90
2019-03-08T05:42:46.007Z,99.90
2019-03-08T05:45:15.383Z,99.90
2019-03-08T05:47:44.737Z,99.90
2019-03-08T05:50:14.471Z,99.90
2019-03-08T05:52:44.153Z,99.90
2019-03-08T05:55:13.512Z,99.90
2019-03-08T05:57:43.304Z,99.90
2019-03-08T06:00:13.458Z,99.90
2019-03-08T06:02:42.865Z,99.90
2019-03-08T06:05:12.289Z,99.90
2019-03-08T06:07:41.897Z,99.90
2019-03-08T06:10:33.472Z,99.90
2019-03-08T06:13:03.112Z,99.90
2019-03-08T06:15:32.427Z,99.90
2019-03-08T06:18:01.821Z,99.90
2019-03-08T06:20:31.150Z,99.90
2019-03-08T06:23:00.556Z,99.90
2019-03-08T06:25:29.982Z,99.90
2019-03-08T06:27:59.332Z,99.90
2019-03-08T06:30:28.642Z,99.90
2019-03-08T06:32:57.969Z,99.90
2019-03-08T06:35:27.337Z,99.90
2019-03-08T06:37:56.738Z,99.90
2019-03-08T06:40:26.445Z,99.90
2019-03-08T06:42:55.753Z,99.90
2019-03-08T06:45:25.078Z,99.90
2019-03-08T06:47:54.445Z,99.90
2019-03-08T06:50:23.814Z,99.90
2019-03-08T06:52:53.184Z,99.90
2019-03-08T06:55:22.523Z,99.90
2019-03-08T06:57:59.144Z,99.90
2019-03-08T07:00:34.353Z,99.90
2019-03-08T07:03:04.832Z,99.90
2019-03-08T07:05:34.240Z,99.90
2019-03-08T07:08:03.624Z,99.90
2019-03-08T07:10:32.958Z,99.90
2019-03-08T07:13:03.697Z,99.90
2019-03-08T07:15:33.343Z,99.90
2019-03-08T07:18:11.742Z,99.90
2019-03-08T07:20:41.432Z,99.90
2019-03-08T07:23:32.618Z,99.90
2019-03-08T07:26:14.327Z,99.90
2019-03-08T07:29:14.787Z,99.90
2019-03-08T07:32:18.437Z,99.90
2019-03-08T07:35:06.952Z,99.90
2019-03-08T07:37:53.420Z,99.90
2019-03-08T07:40:33.923Z,99.90
2019-03-08T07:43:31.162Z,99.90
2019-03-08T07:46:10.049Z,99.90
2019-03-08T07:49:07.772Z,99.90
2019-03-08T07:51:56.107Z,99.90
2019-03-08T07:54:56.236Z,99.90
2019-03-08T07:57:43.341Z,99.90
2019-03-08T08:00:22.437Z,99.90
2019-03-08T08:03:03.497Z,99.90
2019-03-08T08:05:35.772Z,99.90
2019-03-08T08:08:22.988Z,99.90
2019-03-08T08:11:11.300Z,99.90
2019-03-08T08:14:05.450Z,99.90
2019-03-08T08:16:56.648Z,99.90
2019-03-08T08:19:38.621Z,99.90
2019-03-08T08:22:37.421Z,99.90
2019-03-08T08:25:25.783Z,99.90
2019-03-08T08:28:17.002Z,99.90
2019-03-08T08:31:04.244Z,99.90
2019-03-08T08:34:07.766Z,99.90
2019-03-08T08:36:48.657Z,99.90
2019-03-08T08:39:46.256Z,99.90
2019-03-08T08:42:33.707Z,99.90
2019-03-08T08:45:31.056Z,99.90
2019-03-08T08:48:22.560Z,99.90
2019-03-08T08:51:05.135Z,99.90
2019-03-08T08:53:47.156Z,99.90
2019-03-08T08:56:39.666Z,99.90
2019-03-08T08:59:31.209Z,99.90
2019-03-08T09:02:18.388Z,99.90
2019-03-08T09:04:55.099Z,99.90
2019-03-08T09:07:46.418Z,99.90
2019-03-08T09:10:40.096Z,99.90
2019-03-08T09:13:27.315Z,99.90
2019-03-08T09:16:21.441Z,99.90
2019-03-08T09:19:12.752Z,99.90
2019-03-08T09:21:48.356Z,99.90
2019-03-08T09:24:41.297Z,99.90
2019-03-08T09:27:35.485Z,99.90
2019-03-08T09:30:13.093Z,99.90
2019-03-08T09:32:59.311Z,99.90
2019-03-08T09:35:43.404Z,99.90
2019-03-08T09:38:31.664Z,99.90
2019-03-08T09:41:20.987Z,99.90
2019-03-08T09:44:15.473Z,99.90
2019-03-08T09:47:09.702Z,99.90
2019-03-08T09:49:58.027Z,99.90
2019-03-08T09:52:58.584Z,99.90
2019-03-08T09:56:05.097Z,99.90
2019-03-08T09:58:59.604Z,99.90
2019-03-08T10:01:50.596Z,99.90
2019-03-08T10:04:46.771Z,99.90
2019-03-08T10:07:21.030Z,99.90
2019-03-08T10:10:07.831Z,99.90
2019-03-08T10:12:59.420Z,99.90
2019-03-08T10:15:34.722Z,99.90
2019-03-08T10:18:22.194Z,99.90
2019-03-08T10:21:09.342Z,99.90
2019-03-08T10:23:57.674Z,99.90
2019-03-08T10:26:46.041Z,99.90
2019-03-08T10:29:33.325Z,99.90
2019-03-08T10:32:25.012Z,99.90
2019-03-08T10:35:23.440Z,99.90
2019-03-08T10:38:24.378Z,99.90
2019-03-08T10:41:02.149Z,99.90
2019-03-08T10:43:43.560Z,99.90
2019-03-08T10:46:30.809Z,99.90
2019-03-08T10:49:31.743Z,99.90
2019-03-08T10:52:20.063Z,99.90
2019-03-08T10:55:03.499Z,99.90
2019-03-08T10:57:53.899Z,99.90
2019-03-08T11:00:39.477Z,99.90
2019-03-08T11:03:31.156Z,99.90
2019-03-08T11:06:19.193Z,99.90
2019-03-08T11:08:53.869Z,99.90
2019-03-08T11:11:40.586Z,99.90
2019-03-08T11:14:23.334Z,99.90
2019-03-08T11:17:03.424Z,99.90
2019-03-08T11:20:07.297Z,99.90
2019-03-08T11:23:11.110Z,99.90
2019-03-08T11:26:14.585Z,99.90
2019-03-08T11:29:05.656Z,99.90
2019-03-08T11:31:46.430Z,99.90
2019-03-08T11:34:34.796Z,99.90
2019-03-08T11:37:11.011Z,99.90
2019-03-08T11:40:05.245Z,99.90
2019-03-08T11:42:50.690Z,99.90
2019-03-08T11:45:37.909Z,99.90
2019-03-08T11:48:25.828Z,99.90
2019-03-08T11:51:15.407Z,99.90
2019-03-08T11:54:06.020Z,99.90
2019-03-08T11:56:57.096Z,99.90
2019-03-08T11:59:47.877Z,99.90
2019-03-08T12:02:39.323Z,99.90
2019-03-08T12:05:31.357Z,99.90
2019-03-08T12:08:19.733Z,99.90
2019-03-08T12:11:23.123Z,99.70
2019-03-08T12:13:58.674Z,99.90
2019-03-08T12:16:39.829Z,99.90
2019-03-08T12:19:27.028Z,99.90
2019-03-08T12:22:19.104Z,99.40
2019-03-08T12:25:13.261Z,97.80
2019-03-08T12:27:51.942Z,96.90
2019-03-08T12:30:31.742Z,97.30
2019-03-08T12:33:16.413Z,97.40
2019-03-08T12:36:10.627Z,96.30
2019-03-08T12:38:53.193Z,95.50
2019-03-08T12:41:30.162Z,95.70
2019-03-08T12:44:13.128Z,95.50
2019-03-08T12:47:04.401Z,96.10
2019-03-08T12:49:51.508Z,96.90
2019-03-08T12:52:44.995Z,98.30
2019-03-08T12:55:42.484Z,98.70
2019-03-08T12:58:30.861Z,97.20
2019-03-08T13:01:17.905Z,95.60
2019-03-08T13:03:55.385Z,96.00
2019-03-08T13:06:31.286Z,96.90
2019-03-08T13:09:12.302Z,97.30
2019-03-08T13:11:41.717Z,97.60
2019-03-08T13:14:11.050Z,95.70
2019-03-08T13:16:40.495Z,95.10
2019-03-08T13:19:09.849Z,96.20
2019-03-08T13:21:39.640Z,96.50
2019-03-08T13:24:09.319Z,96.70
2019-03-08T13:26:38.854Z,97.40
2019-03-08T13:29:08.237Z,97.30
2019-03-08T13:31:37.887Z,97.60
2019-03-08T13:34:07.270Z,98.00
2019-03-08T13:36:36.617Z,97.00
2019-03-08T13:39:07.543Z,98.30
2019-03-08T13:41:36.893Z,98.60
2019-03-08T13:44:06.312Z,98.70
2019-03-08T13:46:35.635Z,99.10
2019-03-08T13:49:05.034Z,99.50
2019-03-08T13:51:34.399Z,98.70
2019-03-08T13:54:03.729Z,98.10
2019-03-08T13:56:35.497Z,99.20
2019-03-08T13:59:04.174Z,98.70
2019-03-08T14:01:33.462Z,98.60
2019-03-08T14:04:03.149Z,98.70
2019-03-08T14:06:32.649Z,97.50
2019-03-08T14:09:02.074Z,97.30
2019-03-08T14:11:31.451Z,96.80
2019-03-08T14:14:00.770Z,96.30
2019-03-08T14:16:30.228Z,96.20
2019-03-08T14:18:59.593Z,96.00
2019-03-08T14:21:28.911Z,95.50
2019-03-08T14:23:58.228Z,96.00
2019-03-08T14:26:27.527Z,96.00
2019-03-08T14:28:57.135Z,96.00
2019-03-08T14:31:31.308Z,96.20
2019-03-08T14:34:00.762Z,96.90
2019-03-08T14:36:30.175Z,96.90
2019-03-08T14:38:59.532Z,96.30
2019-03-08T14:41:37.625Z,96.50
2019-03-08T14:44:26.408Z,96.20
2019-03-08T14:47:14.886Z,96.40
2019-03-08T14:49:44.240Z,96.40
2019-03-08T14:52:13.557Z,95.90
2019-03-08T14:54:46.395Z,95.80
2019-03-08T14:57:26.372Z,96.10
2019-03-08T14:59:45.045Z,96.40
2019-03-08T15:02:33.674Z,96.50
2019-03-08T15:05:10.957Z,96.50
2019-03-08T15:07:37.233Z,97.30
2019-03-08T15:10:06.177Z,97.50
2019-03-08T15:12:48.291Z,97.20
2019-03-08T15:15:11.304Z,97.40
2019-03-08T15:17:39.823Z,97.50
2019-03-08T15:20:15.133Z,97.30
2019-03-08T15:22:41.837Z,97.50
2019-03-08T15:25:12.698Z,97.50
2019-03-08T15:27:42.368Z,97.30
2019-03-08T15:30:13.724Z,97.10
2019-03-08T15:32:43.071Z,97.60
2019-03-08T15:35:12.792Z,97.20
2019-03-08T15:37:44.566Z,97.70
2019-03-08T15:40:15.805Z,98.40
2019-03-08T15:42:45.128Z,97.90
2019-03-08T15:45:15.024Z,98.20
2019-03-08T15:47:44.697Z,99.50
2019-03-08T15:50:15.848Z,99.90
2019-03-08T15:52:45.241Z,99.90
2019-03-08T15:55:14.677Z,99.90
2019-03-08T15:57:44.682Z,99.90
2019-03-08T16:00:16.733Z,99.90
2019-03-08T16:02:46.509Z,99.90
2019-03-08T16:05:16.124Z,99.90
2019-03-08T16:07:45.469Z,99.90
2019-03-08T16:10:15.795Z,99.90
2019-03-08T16:12:45.486Z,99.90
2019-03-08T16:15:15.305Z,99.90
2019-03-08T16:17:44.708Z,99.90
2019-03-08T16:20:15.264Z,99.90
2019-03-08T16:22:47.148Z,99.90
2019-03-08T16:25:16.641Z,99.90
2019-03-08T16:27:45.963Z,99.90
2019-03-08T16:30:23.295Z,99.90
2019-03-08T16:32:58.178Z,99.90
2019-03-08T16:35:30.703Z,99.90
2019-03-08T16:38:27.839Z,99.90
2019-03-08T16:41:25.013Z,99.90
2019-03-08T16:44:11.713Z,99.90
2019-03-08T16:46:50.987Z,99.90
2019-03-08T16:49:26.526Z,99.90
2019-03-08T16:52:14.590Z,99.90
2019-03-08T16:54:51.780Z,99.90
2019-03-08T16:57:48.097Z,99.90
2019-03-08T17:00:22.792Z,99.90
2019-03-08T17:03:11.018Z,99.90
2019-03-08T17:05:46.893Z,99.90
2019-03-08T17:08:22.536Z,99.90
2019-03-08T17:10:58.488Z,99.90
2019-03-08T17:13:55.805Z,99.90
2019-03-08T17:16:44.060Z,99.90
2019-03-08T17:19:47.445Z,99.90
2019-03-08T17:22:40.537Z,99.90
2019-03-08T17:25:28.891Z,99.90
2019-03-08T17:28:10.079Z,99.90
2019-03-08T17:31:04.833Z,99.90
2019-03-08T17:33:40.929Z,99.90
2019-03-08T17:36:17.770Z,99.90
2019-03-08T17:39:06.261Z,99.90
2019-03-08T17:42:11.462Z,99.90
2019-03-08T17:45:19.232Z,99.90
2019-03-08T17:48:01.336Z,99.90
2019-03-08T17:50:37.936Z,99.90
2019-03-08T17:53:32.359Z,99.90
2019-03-08T17:56:19.180Z,99.90
2019-03-08T17:59:25.680Z,99.90
2019-03-08T18:02:06.932Z,99.90
2019-03-08T18:05:00.864Z,99.90
2019-03-08T18:07:55.368Z,99.90
2019-03-08T18:10:42.622Z,99.90
2019-03-08T18:13:42.894Z,99.90
2019-03-08T18:16:27.370Z,99.90
2019-03-08T18:19:16.848Z,99.90
2019-03-08T18:21:59.610Z,99.90
2019-03-08T18:24:53.910Z,99.90
2019-03-08T18:27:37.068Z,99.90
2019-03-08T18:30:18.146Z,99.90
2019-03-08T18:33:06.436Z,99.90
2019-03-08T18:36:03.552Z,99.90
2019-03-08T18:39:10.291Z,99.90
2019-03-08T18:41:53.256Z,99.90
2019-03-08T18:44:41.507Z,99.90
2019-03-08T18:47:29.109Z,99.90
2019-03-08T18:50:17.448Z,99.90
2019-03-08T18:53:11.558Z,99.90
2019-03-08T18:55:58.542Z,99.90
2019-03-08T18:58:46.793Z,99.90
2019-03-08T19:01:34.554Z,99.90
2019-03-08T19:04:35.231Z,99.90
2019-03-08T19:07:11.204Z,99.90
2019-03-08T19:09:48.240Z,99.90
2019-03-08T19:12:45.314Z,99.90
2019-03-08T19:15:36.627Z,99.90
2019-03-08T19:18:24.003Z,99.90
2019-03-08T19:21:18.402Z,99.90
2019-03-08T19:23:55.436Z,99.90
2019-03-08T19:26:40.411Z,99.90
2019-03-08T19:29:34.853Z,99.90
2019-03-08T19:32:10.132Z,99.90
2019-03-08T19:34:51.168Z,99.90
2019-03-08T19:37:38.099Z,99.90
2019-03-08T19:40:16.499Z,99.90
2019-03-08T19:43:07.616Z,99.90
2019-03-08T19:45:46.386Z,99.90
2019-03-08T19:48:30.438Z,99.90
2019-03-08T19:51:21.693Z,99.90
2019-03-08T19:54:02.604Z,99.90
2019-03-08T19:56:53.920Z,99.90
2019-03-08T19:59:38.380Z,99.90
2019-03-08T20:02:25.483Z,99.90
2019-03-08T20:05:13.693Z,99.90
2019-03-08T20:08:09.283Z,99.90
2019-03-08T20:10:57.554Z,99.90
2019-03-08T20:13:48.595Z,99.90
2019-03-08T20:16:28.809Z,99.90
2019-03-08T20:19:32.485Z,99.90
2019-03-08T20:22:14.773Z,99.90
2019-03-08T20:25:12.380Z,99.90
2019-03-08T20:27:53.209Z,99.90
2019-03-08T20:30:48.966Z,99.90
2019-03-08T20:33:36.073Z,99.90
2019-03-08T20:36:21.938Z,99.90
2019-03-08T20:38:59.093Z,99.90
2019-03-08T20:41:38.566Z,99.90
2019-03-08T20:44:28.124Z,99.90
2019-03-08T20:47:07.738Z,99.90
2019-03-08T20:49:37.036Z,99.90
2019-03-08T20:52:06.552Z,99.90
2019-03-08T20:54:36.249Z,99.90
2019-03-08T20:57:05.698Z,99.90
2019-03-08T20:59:35.061Z,99.90
2019-03-08T21:02:04.439Z,99.90
2019-03-08T21:04:33.740Z,99.90
2019-03-08T21:07:03.422Z,99.90
2019-03-08T21:09:33.096Z,99.90
2019-03-08T21:12:02.405Z,99.90
2019-03-08T21:14:31.730Z,99.90
2019-03-08T21:17:01.286Z,99.90
2019-03-08T21:19:30.968Z,99.90
2019-03-08T21:22:00.380Z,99.90
2019-03-08T21:24:29.686Z,99.90
2019-03-08T21:26:58.918Z,99.90
2019-03-08T21:29:28.309Z,99.90
2019-03-08T21:31:57.682Z,99.90
2019-03-08T21:34:27.018Z,99.90
2019-03-08T21:36:56.309Z,99.90
2019-03-08T21:39:25.959Z,99.90
2019-03-08T21:41:55.255Z,99.90
2019-03-08T21:44:24.652Z,99.90
2019-03-08T21:46:54.096Z,99.90
2019-03-08T21:49:23.456Z,99.90
2019-03-08T21:51:52.899Z,99.90
2019-03-08T21:54:22.233Z,99.90
2019-03-08T21:56:52.441Z,99.90
2019-03-08T21:59:22.318Z,99.90
2019-03-08T22:01:52.944Z,99.90
2019-03-08T22:04:30.479Z,99.90
2019-03-08T22:07:00.232Z,99.90
2019-03-08T22:09:47.865Z,99.90
2019-03-08T22:12:17.230Z,99.90
2019-03-08T22:14:46.681Z,99.90
2019-03-08T22:17:16.278Z,99.90
2019-03-08T22:19:45.783Z,99.90
2019-03-08T22:22:15.394Z,99.90
2019-03-08T22:24:44.731Z,99.90
2019-03-08T22:27:14.033Z,99.90
2019-03-08T22:29:43.427Z,99.90
2019-03-08T22:32:13.147Z,99.90
2019-03-08T22:34:42.451Z,99.90
2019-03-08T22:37:11.797Z,99.90
2019-03-08T22:39:41.114Z,99.90
2019-03-08T22:42:10.491Z,99.90
2019-03-08T22:44:40.162Z,99.90
2019-03-08T22:47:09.543Z,99.90
2019-03-08T22:49:38.836Z,99.90
2019-03-08T22:52:08.508Z,99.90
2019-03-08T22:54:37.929Z,99.90
2019-03-08T22:57:07.240Z,99.90
2019-03-08T22:59:36.526Z,99.90
2019-03-08T23:02:11.102Z,99.90
2019-03-08T23:04:40.420Z,99.90
2019-03-08T23:07:09.731Z,99.90
2019-03-08T23:09:39.320Z,99.90
2019-03-08T23:12:08.673Z,99.90
2019-03-08T23:14:37.898Z,99.90
2019-03-08T23:17:07.201Z,99.90
2019-03-08T23:19:36.522Z,99.90
2019-03-08T23:22:06.189Z,99.90
2019-03-08T23:24:35.498Z,99.90
2019-03-08T23:27:22.563Z,99.90
2019-03-08T23:30:13.804Z,99.90
2019-03-08T23:32:47.072Z,99.90
2019-03-08T23:35:16.840Z,99.90
2019-03-08T23:37:46.215Z,99.90
2019-03-08T23:40:16.015Z,99.90
2019-03-08T23:42:45.341Z,99.90
2019-03-08T23:45:14.697Z,99.90
2019-03-08T23:47:44.034Z,99.90
2019-03-08T23:50:13.361Z,99.90
2019-03-08T23:52:42.962Z,99.90
2019-03-08T23:55:12.501Z,99.90
2019-03-08T23:57:41.802Z,99.90
